sensor_id;sensor_type;location;lat;lon;timestamp;temperature;humidity
7349;DHT22;13010;-33.424;-70.614;2023-03-01T00:01:59;22.50;67.70
7349;DHT22;13010;-33.424;-70.614;2023-03-01T00:04:48;22.30;73.90
7349;DHT22;13010;-33.424;-70.614;2023-03-01T00:07:37;22.10;81.20
7349;DHT22;13010;-33.424;-70.614;2023-03-01T00:10:27;22.00;89.40
7349;DHT22;13010;-33.424;-70.614;2023-03-01T00:13:16;21.90;92.80
7349;DHT22;13010;-33.424;-70.614;2023-03-01T00:16:10;21.80;95.80
7349;DHT22;13010;-33.424;-70.614;2023-03-01T00:18:59;21.80;99.70
7349;DHT22;13010;-33.424;-70.614;2023-03-01T00:21:48;21.70;99.90
7349;DHT22;13010;-33.424;-70.614;2023-03-01T00:24:37;21.70;99.90
7349;DHT22;13010;-33.424;-70.614;2023-03-01T00:27:27;21.60;99.90
7349;DHT22;13010;-33.424;-70.614;2023-03-01T00:30:16;21.60;99.90
7349;DHT22;13010;-33.424;-70.614;2023-03-01T00:33:05;21.60;99.90
7349;DHT22;13010;-33.424;-70.614;2023-03-01T00:35:57;21.80;99.90
7349;DHT22;13010;-33.424;-70.614;2023-03-01T00:38:46;21.80;99.90
7349;DHT22;13010;-33.424;-70.614;2023-03-01T00:41:35;21.60;99.90
7349;DHT22;13010;-33.424;-70.614;2023-03-01T00:44:26;21.50;99.90
7349;DHT22;13010;-33.424;-70.614;2023-03-01T00:47:15;21.30;99.90
7349;DHT22;13010;-33.424;-70.614;2023-03-01T00:50:04;21.30;99.90
7349;DHT22;13010;-33.424;-70.614;2023-03-01T00:52:54;21.10;99.90
7349;DHT22;13010;-33.424;-70.614;2023-03-01T00:55:43;20.90;99.90
7349;DHT22;13010;-33.424;-70.614;2023-03-01T00:58:32;20.80;99.90
7349;DHT22;13010;-33.424;-70.614;2023-03-01T01:01:24;20.70;99.90
7349;DHT22;13010;-33.424;-70.614;2023-03-01T01:04:14;20.80;99.90
7349;DHT22;13010;-33.424;-70.614;2023-03-01T01:07:03;20.70;99.90
7349;DHT22;13010;-33.424;-70.614;2023-03-01T01:09:52;20.60;99.90
7349;DHT22;13010;-33.424;-70.614;2023-03-01T01:12:41;20.70;99.90
7349;DHT22;13010;-33.424;-70.614;2023-03-01T01:15:34;20.90;99.90
7349;DHT22;13010;-33.424;-70.614;2023-03-01T01:18:25;21.00;99.90
7349;DHT22;13010;-33.424;-70.614;2023-03-01T01:21:14;21.10;99.90
7349;DHT22;13010;-33.424;-70.614;2023-03-01T01:24:04;21.10;99.90
7349;DHT22;13010;-33.424;-70.614;2023-03-01T01:26:53;21.00;99.90
7349;DHT22;13010;-33.424;-70.614;2023-03-01T01:29:42;20.90;99.90
7349;DHT22;13010;-33.424;-70.614;2023-03-01T01:32:31;20.70;99.90
7349;DHT22;13010;-33.424;-70.614;2023-03-01T01:35:22;20.60;99.90
7349;DHT22;13010;-33.424;-70.614;2023-03-01T01:38:11;20.30;99.90
7349;DHT22;13010;-33.424;-70.614;2023-03-01T01:40:59;20.10;99.90
7349;DHT22;13010;-33.424;-70.614;2023-03-01T01:43:49;20.20;99.90
7349;DHT22;13010;-33.424;-70.614;2023-03-01T01:46:58;20.10;99.90
7349;DHT22;13010;-33.424;-70.614;2023-03-01T01:49:50;20.00;99.90
7349;DHT22;13010;-33.424;-70.614;2023-03-01T01:52:41;20.00;99.90
7349;DHT22;13010;-33.424;-70.614;2023-03-01T01:55:30;20.00;99.90
7349;DHT22;13010;-33.424;-70.614;2023-03-01T01:58:20;19.80;99.90
7349;DHT22;13010;-33.424;-70.614;2023-03-01T02:01:10;19.50;99.90
7349;DHT22;13010;-33.424;-70.614;2023-03-01T02:03:59;19.50;99.90
7349;DHT22;13010;-33.424;-70.614;2023-03-01T02:06:51;19.40;99.90
7349;DHT22;13010;-33.424;-70.614;2023-03-01T02:09:47;19.40;99.90
7349;DHT22;13010;-33.424;-70.614;2023-03-01T02:12:37;19.40;99.90
7349;DHT22;13010;-33.424;-70.614;2023-03-01T02:15:26;19.50;99.90
7349;DHT22;13010;-33.424;-70.614;2023-03-01T02:18:17;19.50;99.90
7349;DHT22;13010;-33.424;-70.614;2023-03-01T02:21:36;19.30;99.90
7349;DHT22;13010;-33.424;-70.614;2023-03-01T02:24:28;19.40;99.90
7349;DHT22;13010;-33.424;-70.614;2023-03-01T02:27:25;19.40;99.90
7349;DHT22;13010;-33.424;-70.614;2023-03-01T02:30:17;19.20;99.90
7349;DHT22;13010;-33.424;-70.614;2023-03-01T02:33:06;19.20;99.90
7349;DHT22;13010;-33.424;-70.614;2023-03-01T02:35:55;19.10;99.90
7349;DHT22;13010;-33.424;-70.614;2023-03-01T02:38:45;19.20;99.90
7349;DHT22;13010;-33.424;-70.614;2023-03-01T02:41:41;19.30;99.90
7349;DHT22;13010;-33.424;-70.614;2023-03-01T02:44:31;19.10;99.90
7349;DHT22;13010;-33.424;-70.614;2023-03-01T02:47:22;18.90;99.90
7349;DHT22;13010;-33.424;-70.614;2023-03-01T02:50:21;18.90;99.90
7349;DHT22;13010;-33.424;-70.614;2023-03-01T02:53:15;18.70;99.90
7349;DHT22;13010;-33.424;-70.614;2023-03-01T02:56:05;18.50;99.90
7349;DHT22;13010;-33.424;-70.614;2023-03-01T02:58:58;18.50;99.90
7349;DHT22;13010;-33.424;-70.614;2023-03-01T03:01:48;18.30;99.90
7349;DHT22;13010;-33.424;-70.614;2023-03-01T03:04:39;18.30;99.90
7349;DHT22;13010;-33.424;-70.614;2023-03-01T03:07:28;18.20;99.90
7349;DHT22;13010;-33.424;-70.614;2023-03-01T03:10:21;18.20;99.90
7349;DHT22;13010;-33.424;-70.614;2023-03-01T03:13:12;18.00;99.90
7349;DHT22;13010;-33.424;-70.614;2023-03-01T03:16:03;18.10;99.90
7349;DHT22;13010;-33.424;-70.614;2023-03-01T03:18:52;17.90;99.90
7349;DHT22;13010;-33.424;-70.614;2023-03-01T03:21:43;17.80;99.90
7349;DHT22;13010;-33.424;-70.614;2023-03-01T03:24:32;17.80;99.90
7349;DHT22;13010;-33.424;-70.614;2023-03-01T03:27:24;17.80;99.90
7349;DHT22;13010;-33.424;-70.614;2023-03-01T03:30:16;17.80;99.90
7349;DHT22;13010;-33.424;-70.614;2023-03-01T03:33:06;17.60;99.90
7349;DHT22;13010;-33.424;-70.614;2023-03-01T03:35:55;17.70;99.90
7349;DHT22;13010;-33.424;-70.614;2023-03-01T03:38:46;17.70;99.90
7349;DHT22;13010;-33.424;-70.614;2023-03-01T03:41:36;17.60;99.90
7349;DHT22;13010;-33.424;-70.614;2023-03-01T03:44:24;17.80;99.90
7349;DHT22;13010;-33.424;-70.614;2023-03-01T03:47:13;18.00;99.90
7349;DHT22;13010;-33.424;-70.614;2023-03-01T03:50:02;18.00;99.90
7349;DHT22;13010;-33.424;-70.614;2023-03-01T03:52:51;17.90;99.90
7349;DHT22;13010;-33.424;-70.614;2023-03-01T03:55:42;17.70;99.90
7349;DHT22;13010;-33.424;-70.614;2023-03-01T03:58:30;17.50;99.90
7349;DHT22;13010;-33.424;-70.614;2023-03-01T04:01:19;17.40;99.90
7349;DHT22;13010;-33.424;-70.614;2023-03-01T04:04:08;17.40;99.90
7349;DHT22;13010;-33.424;-70.614;2023-03-01T04:06:56;17.50;99.90
7349;DHT22;13010;-33.424;-70.614;2023-03-01T04:09:45;17.60;99.90
7349;DHT22;13010;-33.424;-70.614;2023-03-01T04:12:36;17.70;99.90
7349;DHT22;13010;-33.424;-70.614;2023-03-01T04:15:26;17.50;99.90
7349;DHT22;13010;-33.424;-70.614;2023-03-01T04:18:16;17.30;99.90
7349;DHT22;13010;-33.424;-70.614;2023-03-01T04:21:05;17.10;99.90
7349;DHT22;13010;-33.424;-70.614;2023-03-01T04:23:54;17.00;99.90
7349;DHT22;13010;-33.424;-70.614;2023-03-01T04:26:43;16.90;99.90
7349;DHT22;13010;-33.424;-70.614;2023-03-01T04:29:34;16.90;99.90
7349;DHT22;13010;-33.424;-70.614;2023-03-01T04:32:23;17.00;99.90
7349;DHT22;13010;-33.424;-70.614;2023-03-01T04:35:11;16.80;99.90
7349;DHT22;13010;-33.424;-70.614;2023-03-01T04:38:01;16.70;99.90
7349;DHT22;13010;-33.424;-70.614;2023-03-01T04:40:50;16.60;99.90
7349;DHT22;13010;-33.424;-70.614;2023-03-01T04:43:39;16.40;99.90
7349;DHT22;13010;-33.424;-70.614;2023-03-01T04:46:29;16.40;99.90
7349;DHT22;13010;-33.424;-70.614;2023-03-01T04:49:18;16.30;99.90
7349;DHT22;13010;-33.424;-70.614;2023-03-01T04:52:07;16.20;99.90
7349;DHT22;13010;-33.424;-70.614;2023-03-01T04:54:56;16.20;99.90
7349;DHT22;13010;-33.424;-70.614;2023-03-01T04:57:45;16.10;99.90
7349;DHT22;13010;-33.424;-70.614;2023-03-01T05:00:34;16.00;99.90
7349;DHT22;13010;-33.424;-70.614;2023-03-01T05:03:25;16.00;99.90
7349;DHT22;13010;-33.424;-70.614;2023-03-01T05:06:15;16.00;99.90
7349;DHT22;13010;-33.424;-70.614;2023-03-01T05:09:04;16.00;99.90
7349;DHT22;13010;-33.424;-70.614;2023-03-01T05:11:55;16.00;99.90
7349;DHT22;13010;-33.424;-70.614;2023-03-01T05:14:45;15.90;99.90
7349;DHT22;13010;-33.424;-70.614;2023-03-01T05:17:34;15.80;99.90
7349;DHT22;13010;-33.424;-70.614;2023-03-01T05:20:24;15.70;99.90
7349;DHT22;13010;-33.424;-70.614;2023-03-01T05:23:14;15.60;99.90
7349;DHT22;13010;-33.424;-70.614;2023-03-01T05:26:03;15.50;99.90
7349;DHT22;13010;-33.424;-70.614;2023-03-01T05:28:53;15.50;99.90
7349;DHT22;13010;-33.424;-70.614;2023-03-01T05:31:44;15.30;99.90
7349;DHT22;13010;-33.424;-70.614;2023-03-01T05:34:35;15.20;99.90
7349;DHT22;13010;-33.424;-70.614;2023-03-01T05:37:26;15.20;99.90
7349;DHT22;13010;-33.424;-70.614;2023-03-01T05:40:16;15.10;99.90
7349;DHT22;13010;-33.424;-70.614;2023-03-01T05:43:06;15.00;99.90
7349;DHT22;13010;-33.424;-70.614;2023-03-01T05:45:54;15.00;99.90
7349;DHT22;13010;-33.424;-70.614;2023-03-01T05:48:45;14.90;99.90
7349;DHT22;13010;-33.424;-70.614;2023-03-01T05:51:34;14.90;99.90
7349;DHT22;13010;-33.424;-70.614;2023-03-01T05:54:24;14.70;99.90
7349;DHT22;13010;-33.424;-70.614;2023-03-01T05:57:13;14.50;99.90
7349;DHT22;13010;-33.424;-70.614;2023-03-01T06:00:02;14.50;99.90
7349;DHT22;13010;-33.424;-70.614;2023-03-01T06:02:53;14.40;99.90
7349;DHT22;13010;-33.424;-70.614;2023-03-01T06:05:42;14.20;99.90
7349;DHT22;13010;-33.424;-70.614;2023-03-01T06:08:30;14.20;99.90
7349;DHT22;13010;-33.424;-70.614;2023-03-01T06:11:21;14.30;99.90
7349;DHT22;13010;-33.424;-70.614;2023-03-01T06:14:10;14.10;99.90
7349;DHT22;13010;-33.424;-70.614;2023-03-01T06:17:00;13.90;99.90
7349;DHT22;13010;-33.424;-70.614;2023-03-01T06:19:49;13.90;99.90
7349;DHT22;13010;-33.424;-70.614;2023-03-01T06:22:38;13.70;99.90
7349;DHT22;13010;-33.424;-70.614;2023-03-01T06:25:28;13.70;99.90
7349;DHT22;13010;-33.424;-70.614;2023-03-01T06:28:18;13.70;99.90
7349;DHT22;13010;-33.424;-70.614;2023-03-01T06:31:07;13.70;99.90
7349;DHT22;13010;-33.424;-70.614;2023-03-01T06:33:56;13.60;99.90
7349;DHT22;13010;-33.424;-70.614;2023-03-01T06:36:46;13.50;99.90
7349;DHT22;13010;-33.424;-70.614;2023-03-01T06:39:35;13.60;99.90
7349;DHT22;13010;-33.424;-70.614;2023-03-01T06:42:24;13.50;99.90
7349;DHT22;13010;-33.424;-70.614;2023-03-01T06:45:15;13.50;99.90
7349;DHT22;13010;-33.424;-70.614;2023-03-01T06:48:05;13.50;99.90
7349;DHT22;13010;-33.424;-70.614;2023-03-01T06:50:55;13.60;99.90
7349;DHT22;13010;-33.424;-70.614;2023-03-01T06:53:47;13.60;99.90
7349;DHT22;13010;-33.424;-70.614;2023-03-01T06:56:35;13.70;99.90
7349;DHT22;13010;-33.424;-70.614;2023-03-01T06:59:24;13.50;99.90
7349;DHT22;13010;-33.424;-70.614;2023-03-01T07:05:58;13.40;99.90
7349;DHT22;13010;-33.424;-70.614;2023-03-01T07:08:46;13.30;99.90
7349;DHT22;13010;-33.424;-70.614;2023-03-01T07:11:35;13.30;99.90
7349;DHT22;13010;-33.424;-70.614;2023-03-01T07:14:24;13.30;99.90
7349;DHT22;13010;-33.424;-70.614;2023-03-01T07:17:13;13.40;99.90
7349;DHT22;13010;-33.424;-70.614;2023-03-01T07:20:02;13.30;99.90
7349;DHT22;13010;-33.424;-70.614;2023-03-01T07:22:55;13.40;99.90
7349;DHT22;13010;-33.424;-70.614;2023-03-01T07:25:44;13.40;99.90
7349;DHT22;13010;-33.424;-70.614;2023-03-01T07:28:39;13.20;99.90
7349;DHT22;13010;-33.424;-70.614;2023-03-01T07:31:27;13.10;99.90
7349;DHT22;13010;-33.424;-70.614;2023-03-01T07:34:16;13.00;99.90
7349;DHT22;13010;-33.424;-70.614;2023-03-01T07:37:05;12.80;99.90
7349;DHT22;13010;-33.424;-70.614;2023-03-01T07:39:55;12.60;99.90
7349;DHT22;13010;-33.424;-70.614;2023-03-01T07:42:44;12.40;99.90
7349;DHT22;13010;-33.424;-70.614;2023-03-01T07:45:33;12.30;99.90
7349;DHT22;13010;-33.424;-70.614;2023-03-01T07:48:22;12.20;99.90
7349;DHT22;13010;-33.424;-70.614;2023-03-01T07:51:11;12.00;99.90
7349;DHT22;13010;-33.424;-70.614;2023-03-01T07:54:00;11.80;99.90
7349;DHT22;13010;-33.424;-70.614;2023-03-01T07:56:50;11.80;99.90
7349;DHT22;13010;-33.424;-70.614;2023-03-01T07:59:40;11.80;99.90
7349;DHT22;13010;-33.424;-70.614;2023-03-01T08:02:29;11.80;99.90
7349;DHT22;13010;-33.424;-70.614;2023-03-01T08:05:18;11.70;99.90
7349;DHT22;13010;-33.424;-70.614;2023-03-01T08:08:08;11.70;99.90
7349;DHT22;13010;-33.424;-70.614;2023-03-01T08:10:57;11.70;99.90
7349;DHT22;13010;-33.424;-70.614;2023-03-01T08:13:48;11.70;99.90
7349;DHT22;13010;-33.424;-70.614;2023-03-01T08:16:37;11.60;99.90
7349;DHT22;13010;-33.424;-70.614;2023-03-01T08:19:26;11.40;99.90
7349;DHT22;13010;-33.424;-70.614;2023-03-01T08:22:15;11.40;99.90
7349;DHT22;13010;-33.424;-70.614;2023-03-01T08:25:05;11.40;99.90
7349;DHT22;13010;-33.424;-70.614;2023-03-01T08:27:54;11.50;99.90
7349;DHT22;13010;-33.424;-70.614;2023-03-01T08:30:44;11.50;99.90
7349;DHT22;13010;-33.424;-70.614;2023-03-01T08:33:33;11.50;99.90
7349;DHT22;13010;-33.424;-70.614;2023-03-01T08:36:22;11.40;99.90
7349;DHT22;13010;-33.424;-70.614;2023-03-01T08:39:13;11.50;99.90
7349;DHT22;13010;-33.424;-70.614;2023-03-01T08:42:02;11.40;99.90
7349;DHT22;13010;-33.424;-70.614;2023-03-01T08:44:51;11.40;99.90
7349;DHT22;13010;-33.424;-70.614;2023-03-01T08:47:41;11.40;99.90
7349;DHT22;13010;-33.424;-70.614;2023-03-01T08:50:31;11.50;99.90
7349;DHT22;13010;-33.424;-70.614;2023-03-01T08:53:19;11.40;99.90
7349;DHT22;13010;-33.424;-70.614;2023-03-01T08:56:09;11.40;99.90
7349;DHT22;13010;-33.424;-70.614;2023-03-01T08:58:58;11.30;99.90
7349;DHT22;13010;-33.424;-70.614;2023-03-01T09:01:47;11.20;99.90
7349;DHT22;13010;-33.424;-70.614;2023-03-01T09:04:37;11.10;99.90
7349;DHT22;13010;-33.424;-70.614;2023-03-01T09:07:27;11.10;99.90
7349;DHT22;13010;-33.424;-70.614;2023-03-01T09:10:16;10.90;99.90
7349;DHT22;13010;-33.424;-70.614;2023-03-01T09:13:05;10.80;99.90
7349;DHT22;13010;-33.424;-70.614;2023-03-01T09:15:53;10.60;99.90
7349;DHT22;13010;-33.424;-70.614;2023-03-01T09:18:42;10.40;99.90
7349;DHT22;13010;-33.424;-70.614;2023-03-01T09:21:33;10.20;99.90
7349;DHT22;13010;-33.424;-70.614;2023-03-01T09:24:22;10.10;99.90
7349;DHT22;13010;-33.424;-70.614;2023-03-01T09:27:11;10.00;99.90
7349;DHT22;13010;-33.424;-70.614;2023-03-01T09:30:03;9.90;99.90
7349;DHT22;13010;-33.424;-70.614;2023-03-01T09:32:53;10.00;99.90
7349;DHT22;13010;-33.424;-70.614;2023-03-01T09:35:41;10.10;99.90
7349;DHT22;13010;-33.424;-70.614;2023-03-01T09:38:34;10.20;99.90
7349;DHT22;13010;-33.424;-70.614;2023-03-01T09:41:44;10.10;99.90
7349;DHT22;13010;-33.424;-70.614;2023-03-01T09:44:38;10.00;99.90
7349;DHT22;13010;-33.424;-70.614;2023-03-01T09:47:30;9.80;99.90
7349;DHT22;13010;-33.424;-70.614;2023-03-01T09:50:21;9.90;99.90
7349;DHT22;13010;-33.424;-70.614;2023-03-01T09:53:13;9.70;99.90
7349;DHT22;13010;-33.424;-70.614;2023-03-01T09:56:11;9.70;99.90
7349;DHT22;13010;-33.424;-70.614;2023-03-01T09:59:11;9.60;99.90
7349;DHT22;13010;-33.424;-70.614;2023-03-01T10:02:20;9.50;99.90
7349;DHT22;13010;-33.424;-70.614;2023-03-01T10:05:44;9.50;99.90
7349;DHT22;13010;-33.424;-70.614;2023-03-01T10:08:39;9.30;99.90
7349;DHT22;13010;-33.424;-70.614;2023-03-01T10:11:35;9.20;99.90
7349;DHT22;13010;-33.424;-70.614;2023-03-01T10:14:30;9.20;99.90
7349;DHT22;13010;-33.424;-70.614;2023-03-01T10:17:27;9.20;99.90
7349;DHT22;13010;-33.424;-70.614;2023-03-01T10:20:22;9.10;99.90
7349;DHT22;13010;-33.424;-70.614;2023-03-01T10:23:11;9.20;99.90
7349;DHT22;13010;-33.424;-70.614;2023-03-01T10:29:13;9.60;99.90
7349;DHT22;13010;-33.424;-70.614;2023-03-01T10:32:04;9.70;99.90
7349;DHT22;13010;-33.424;-70.614;2023-03-01T10:34:53;9.90;99.90
7349;DHT22;13010;-33.424;-70.614;2023-03-01T10:37:58;10.00;99.90
7349;DHT22;13010;-33.424;-70.614;2023-03-01T10:40:54;10.10;99.90
7349;DHT22;13010;-33.424;-70.614;2023-03-01T10:43:46;10.10;99.90
7349;DHT22;13010;-33.424;-70.614;2023-03-01T10:46:38;10.20;99.90
7349;DHT22;13010;-33.424;-70.614;2023-03-01T10:49:27;10.40;99.90
7349;DHT22;13010;-33.424;-70.614;2023-03-01T10:52:20;10.50;99.90
7349;DHT22;13010;-33.424;-70.614;2023-03-01T10:55:25;10.60;99.90
7349;DHT22;13010;-33.424;-70.614;2023-03-01T10:58:19;10.90;99.90
7349;DHT22;13010;-33.424;-70.614;2023-03-01T11:01:26;11.20;99.90
7349;DHT22;13010;-33.424;-70.614;2023-03-01T11:04:19;11.40;99.90
7349;DHT22;13010;-33.424;-70.614;2023-03-01T11:07:08;11.70;99.90
7349;DHT22;13010;-33.424;-70.614;2023-03-01T11:09:57;11.90;99.90
7349;DHT22;13010;-33.424;-70.614;2023-03-01T11:12:48;12.10;99.90
7349;DHT22;13010;-33.424;-70.614;2023-03-01T11:15:37;12.30;99.90
7349;DHT22;13010;-33.424;-70.614;2023-03-01T11:18:27;12.50;99.90
7349;DHT22;13010;-33.424;-70.614;2023-03-01T11:21:19;12.70;99.90
7349;DHT22;13010;-33.424;-70.614;2023-03-01T11:24:11;12.90;99.90
7349;DHT22;13010;-33.424;-70.614;2023-03-01T11:27:04;13.10;99.90
7349;DHT22;13010;-33.424;-70.614;2023-03-01T11:29:57;13.30;99.90
7349;DHT22;13010;-33.424;-70.614;2023-03-01T11:32:55;13.60;99.90
7349;DHT22;13010;-33.424;-70.614;2023-03-01T11:35:49;13.70;99.90
7349;DHT22;13010;-33.424;-70.614;2023-03-01T11:38:45;14.10;99.90
7349;DHT22;13010;-33.424;-70.614;2023-03-01T11:41:37;14.30;99.90
7349;DHT22;13010;-33.424;-70.614;2023-03-01T11:44:29;14.50;99.90
7349;DHT22;13010;-33.424;-70.614;2023-03-01T11:47:32;15.10;99.90
7349;DHT22;13010;-33.424;-70.614;2023-03-01T11:50:31;19.60;99.90
7349;DHT22;13010;-33.424;-70.614;2023-03-01T11:53:35;25.10;99.90
7349;DHT22;13010;-33.424;-70.614;2023-03-01T11:56:34;28.90;99.90
7349;DHT22;13010;-33.424;-70.614;2023-03-01T11:59:51;27.90;99.90
7349;DHT22;13010;-33.424;-70.614;2023-03-01T12:03:17;27.30;99.90
7349;DHT22;13010;-33.424;-70.614;2023-03-01T12:06:34;31.90;99.90
7349;DHT22;13010;-33.424;-70.614;2023-03-01T12:09:44;33.90;75.50
7349;DHT22;13010;-33.424;-70.614;2023-03-01T12:12:47;35.80;54.90
7349;DHT22;13010;-33.424;-70.614;2023-03-01T12:19:16;38.10;37.10
7349;DHT22;13010;-33.424;-70.614;2023-03-01T12:22:31;38.80;31.00
7349;DHT22;13010;-33.424;-70.614;2023-03-01T12:25:28;39.30;26.50
7349;DHT22;13010;-33.424;-70.614;2023-03-01T12:28:32;39.50;25.70
7349;DHT22;13010;-33.424;-70.614;2023-03-01T12:34:55;40.10;22.40
7349;DHT22;13010;-33.424;-70.614;2023-03-01T12:37:56;40.20;22.40
7349;DHT22;13010;-33.424;-70.614;2023-03-01T12:41:22;40.40;21.40
7349;DHT22;13010;-33.424;-70.614;2023-03-01T12:44:26;40.90;20.60
7349;DHT22;13010;-33.424;-70.614;2023-03-01T12:47:31;41.20;19.80
7349;DHT22;13010;-33.424;-70.614;2023-03-01T12:50:28;42.90;18.10
7349;DHT22;13010;-33.424;-70.614;2023-03-01T12:53:23;42.40;17.60
7349;DHT22;13010;-33.424;-70.614;2023-03-01T12:56:15;42.40;16.90
7349;DHT22;13010;-33.424;-70.614;2023-03-01T12:59:13;42.30;16.30
7349;DHT22;13010;-33.424;-70.614;2023-03-01T13:02:12;41.40;17.30
7349;DHT22;13010;-33.424;-70.614;2023-03-01T13:05:13;43.20;16.10
7349;DHT22;13010;-33.424;-70.614;2023-03-01T13:08:12;43.10;15.60
7349;DHT22;13010;-33.424;-70.614;2023-03-01T13:11:05;43.20;15.50
7349;DHT22;13010;-33.424;-70.614;2023-03-01T13:14:36;44.20;14.50
7349;DHT22;13010;-33.424;-70.614;2023-03-01T13:17:41;44.60;13.80
7349;DHT22;13010;-33.424;-70.614;2023-03-01T13:20:45;44.50;13.60
7349;DHT22;13010;-33.424;-70.614;2023-03-01T13:23:37;44.20;13.60
7349;DHT22;13010;-33.424;-70.614;2023-03-01T13:26:26;43.60;13.80
7349;DHT22;13010;-33.424;-70.614;2023-03-01T13:29:26;43.20;14.20
7349;DHT22;13010;-33.424;-70.614;2023-03-01T13:32:23;44.00;13.60
7349;DHT22;13010;-33.424;-70.614;2023-03-01T13:35:44;44.90;12.70
7349;DHT22;13010;-33.424;-70.614;2023-03-01T13:38:45;46.60;11.60
7349;DHT22;13010;-33.424;-70.614;2023-03-01T13:41:57;47.70;10.60
7349;DHT22;13010;-33.424;-70.614;2023-03-01T13:44:48;47.60;10.10
7349;DHT22;13010;-33.424;-70.614;2023-03-01T13:47:37;47.70;9.70
7349;DHT22;13010;-33.424;-70.614;2023-03-01T13:50:28;45.90;10.60
7349;DHT22;13010;-33.424;-70.614;2023-03-01T13:53:21;47.30;9.90
7349;DHT22;13010;-33.424;-70.614;2023-03-01T13:56:15;46.40;10.40
7349;DHT22;13010;-33.424;-70.614;2023-03-01T13:59:06;47.80;9.40
7349;DHT22;13010;-33.424;-70.614;2023-03-01T14:02:11;47.40;9.00
7349;DHT22;13010;-33.424;-70.614;2023-03-01T14:05:10;46.70;10.10
7349;DHT22;13010;-33.424;-70.614;2023-03-01T14:08:05;48.40;9.20
7349;DHT22;13010;-33.424;-70.614;2023-03-01T14:11:38;48.30;8.60
7349;DHT22;13010;-33.424;-70.614;2023-03-01T14:14:47;48.30;8.50
7349;DHT22;13010;-33.424;-70.614;2023-03-01T14:17:55;47.30;8.60
7349;DHT22;13010;-33.424;-70.614;2023-03-01T14:20:47;48.40;8.30
7349;DHT22;13010;-33.424;-70.614;2023-03-01T14:23:41;47.90;8.30
7349;DHT22;13010;-33.424;-70.614;2023-03-01T14:26:32;47.40;8.20
7349;DHT22;13010;-33.424;-70.614;2023-03-01T14:29:33;49.50;7.30
7349;DHT22;13010;-33.424;-70.614;2023-03-01T14:32:25;50.90;6.60
7349;DHT22;13010;-33.424;-70.614;2023-03-01T14:35:21;49.00;6.60
7349;DHT22;13010;-33.424;-70.614;2023-03-01T14:38:21;49.60;6.70
7349;DHT22;13010;-33.424;-70.614;2023-03-01T14:41:11;50.60;6.20
7349;DHT22;13010;-33.424;-70.614;2023-03-01T14:44:02;49.10;6.30
7349;DHT22;13010;-33.424;-70.614;2023-03-01T14:46:56;49.70;6.40
7349;DHT22;13010;-33.424;-70.614;2023-03-01T14:49:49;50.70;5.80
7349;DHT22;13010;-33.424;-70.614;2023-03-01T14:52:42;51.80;4.60
7349;DHT22;13010;-33.424;-70.614;2023-03-01T14:55:35;51.10;4.60
7349;DHT22;13010;-33.424;-70.614;2023-03-01T14:58:27;51.90;4.40
7349;DHT22;13010;-33.424;-70.614;2023-03-01T15:01:17;51.50;4.60
7349;DHT22;13010;-33.424;-70.614;2023-03-01T15:04:11;52.90;3.90
7349;DHT22;13010;-33.424;-70.614;2023-03-01T15:07:01;54.10;2.80
7349;DHT22;13010;-33.424;-70.614;2023-03-01T15:09:51;53.20;3.20
7349;DHT22;13010;-33.424;-70.614;2023-03-01T15:12:43;53.60;3.60
7349;DHT22;13010;-33.424;-70.614;2023-03-01T15:15:35;53.70;3.00
7349;DHT22;13010;-33.424;-70.614;2023-03-01T15:18:27;54.20;2.40
7349;DHT22;13010;-33.424;-70.614;2023-03-01T15:21:20;53.90;3.40
7349;DHT22;13010;-33.424;-70.614;2023-03-01T15:24:20;53.30;2.60
7349;DHT22;13010;-33.424;-70.614;2023-03-01T15:27:15;52.40;3.30
7349;DHT22;13010;-33.424;-70.614;2023-03-01T15:30:06;53.50;3.10
7349;DHT22;13010;-33.424;-70.614;2023-03-01T15:33:31;52.80;2.70
7349;DHT22;13010;-33.424;-70.614;2023-03-01T15:36:39;53.30;3.00
7349;DHT22;13010;-33.424;-70.614;2023-03-01T15:39:34;53.80;2.10
7349;DHT22;13010;-33.424;-70.614;2023-03-01T15:42:37;53.30;2.40
7349;DHT22;13010;-33.424;-70.614;2023-03-01T15:45:28;53.20;2.50
7349;DHT22;13010;-33.424;-70.614;2023-03-01T15:48:24;53.90;2.00
7349;DHT22;13010;-33.424;-70.614;2023-03-01T15:51:14;53.30;2.30
7349;DHT22;13010;-33.424;-70.614;2023-03-01T15:54:08;53.80;1.50
7349;DHT22;13010;-33.424;-70.614;2023-03-01T15:57:00;54.20;2.10
7349;DHT22;13010;-33.424;-70.614;2023-03-01T15:59:48;53.10;1.80
7349;DHT22;13010;-33.424;-70.614;2023-03-01T16:02:37;50.20;3.20
7349;DHT22;13010;-33.424;-70.614;2023-03-01T16:05:28;49.50;3.70
7349;DHT22;13010;-33.424;-70.614;2023-03-01T16:08:18;51.60;3.10
7349;DHT22;13010;-33.424;-70.614;2023-03-01T16:11:14;52.90;2.30
7349;DHT22;13010;-33.424;-70.614;2023-03-01T16:14:03;50.20;2.90
7349;DHT22;13010;-33.424;-70.614;2023-03-01T16:16:52;50.20;3.50
7349;DHT22;13010;-33.424;-70.614;2023-03-01T16:19:43;52.00;2.70
7349;DHT22;13010;-33.424;-70.614;2023-03-01T16:22:32;51.70;2.10
7349;DHT22;13010;-33.424;-70.614;2023-03-01T16:25:21;48.20;3.80
7349;DHT22;13010;-33.424;-70.614;2023-03-01T16:28:13;45.60;5.90
7349;DHT22;13010;-33.424;-70.614;2023-03-01T16:31:02;47.20;5.30
7349;DHT22;13010;-33.424;-70.614;2023-03-01T16:33:54;48.30;4.20
7349;DHT22;13010;-33.424;-70.614;2023-03-01T16:36:43;46.60;5.20
7349;DHT22;13010;-33.424;-70.614;2023-03-01T16:39:32;44.60;6.90
7349;DHT22;13010;-33.424;-70.614;2023-03-01T16:42:21;46.50;5.40
7349;DHT22;13010;-33.424;-70.614;2023-03-01T16:45:13;49.00;4.60
7349;DHT22;13010;-33.424;-70.614;2023-03-01T16:48:02;49.80;3.80
7349;DHT22;13010;-33.424;-70.614;2023-03-01T16:50:57;49.10;4.30
7349;DHT22;13010;-33.424;-70.614;2023-03-01T16:53:47;48.50;4.70
7349;DHT22;13010;-33.424;-70.614;2023-03-01T16:56:35;45.40;6.30
7349;DHT22;13010;-33.424;-70.614;2023-03-01T16:59:30;46.10;5.30
7349;DHT22;13010;-33.424;-70.614;2023-03-01T17:02:21;46.70;5.90
7349;DHT22;13010;-33.424;-70.614;2023-03-01T17:05:10;43.90;6.50
7349;DHT22;13010;-33.424;-70.614;2023-03-01T17:08:00;42.00;8.30
7349;DHT22;13010;-33.424;-70.614;2023-03-01T17:10:49;40.30;9.90
7349;DHT22;13010;-33.424;-70.614;2023-03-01T17:13:39;39.20;10.40
7349;DHT22;13010;-33.424;-70.614;2023-03-01T17:16:28;37.80;12.10
7349;DHT22;13010;-33.424;-70.614;2023-03-01T17:19:18;37.40;12.20
7349;DHT22;13010;-33.424;-70.614;2023-03-01T17:22:07;38.20;12.90
7349;DHT22;13010;-33.424;-70.614;2023-03-01T17:24:56;40.70;11.20
7349;DHT22;13010;-33.424;-70.614;2023-03-01T17:27:50;41.70;9.60
7349;DHT22;13010;-33.424;-70.614;2023-03-01T17:30:42;40.50;10.10
7349;DHT22;13010;-33.424;-70.614;2023-03-01T17:33:33;40.60;11.10
7349;DHT22;13010;-33.424;-70.614;2023-03-01T17:36:24;41.10;10.60
7349;DHT22;13010;-33.424;-70.614;2023-03-01T17:39:13;42.40;9.90
7349;DHT22;13010;-33.424;-70.614;2023-03-01T17:42:02;43.60;7.50
7349;DHT22;13010;-33.424;-70.614;2023-03-01T17:44:52;43.10;8.50
7349;DHT22;13010;-33.424;-70.614;2023-03-01T17:47:41;43.20;8.40
7349;DHT22;13010;-33.424;-70.614;2023-03-01T17:50:30;43.70;8.10
7349;DHT22;13010;-33.424;-70.614;2023-03-01T17:53:21;43.60;8.50
7349;DHT22;13010;-33.424;-70.614;2023-03-01T17:56:10;44.60;7.20